Time;durP1;ratioP1;P1;durP2;ratioP2;P2;SDS_P1;SDS_P2;PMS_P1;PMS_P2;Temp;Humidity;BMP_temperature;BMP_pressure;BME280_temperature;BME280_humidity;BME280_pressure;Samples;Min_cycle;Max_cycle;Signal;HPM_P1;HPM_P2
2023/04/23 00:01:19;;;;;;;13.50;4.60;;;;;;;-143.84;63.66;45117.63;4956803;28;21055;-60
2023/04/23 00:03:48;;;;;;;10.93;5.10;;;;;;;-143.84;63.40;45146.19;4957560;28;20207;-60
2023/04/23 00:06:16;;;;;;;14.37;5.03;;;;;;;-143.84;62.69;45161.41;4953125;28;20442;-60
2023/04/23 00:08:44;;;;;;;5.93;4.33;;;;;;;-143.84;63.16;45144.28;4955249;28;20464;-60
2023/04/23 00:11:11;;;;;;;10.67;4.63;;;;;;;-143.84;62.98;45161.41;4972405;28;20508;-60
2023/04/23 00:13:39;;;;;;;17.67;4.85;;;;;;;-143.84;62.88;45129.03;4952750;28;21048;-60
2023/04/23 00:16:07;;;;;;;14.07;5.10;;;;;;;-143.84;63.11;45146.19;4952982;28;20246;-60
2023/04/23 00:18:36;;;;;;;10.03;4.90;;;;;;;-143.84;63.65;45153.81;4952831;28;20494;-60
2023/04/23 00:21:03;;;;;;;11.53;4.60;;;;;;;-143.84;64.02;45163.31;4955161;28;20462;-60
2023/04/23 00:23:30;;;;;;;12.13;5.10;;;;;;;-143.84;64.00;45178.56;4952910;28;20462;-60
2023/04/23 00:25:58;;;;;;;7.32;4.78;;;;;;;-143.84;63.16;45165.22;4952776;28;20434;-60
2023/04/23 00:28:25;;;;;;;12.77;5.27;;;;;;;-143.84;62.94;45132.84;4952660;28;20222;-60
2023/04/23 00:30:52;;;;;;;7.63;4.67;;;;;;;-143.84;62.43;45121.44;4953077;28;20871;-60
2023/04/23 00:33:19;;;;;;;15.32;5.18;;;;;;;-143.84;62.23;45138.56;4954648;28;20979;-60
2023/04/23 00:35:48;;;;;;;8.50;4.50;;;;;;;-143.84;61.78;45159.50;4952131;28;20234;-60
2023/04/23 00:38:15;;;;;;;9.20;5.00;;;;;;;-143.84;61.80;45167.13;4952551;28;20518;-60
2023/04/23 00:40:42;;;;;;;9.73;4.85;;;;;;;-143.84;61.95;45121.44;4952861;28;20470;-60
2023/04/23 00:43:10;;;;;;;8.73;4.93;;;;;;;-143.84;61.46;45140.47;4952614;28;20258;-60
2023/04/23 00:45:37;;;;;;;18.03;5.10;;;;;;;-143.84;61.26;45136.66;4952510;28;20945;-60
2023/04/23 00:48:05;;;;;;;9.87;4.90;;;;;;;-143.84;61.83;45144.28;4952463;28;20447;-60
2023/04/23 00:50:33;;;;;;;7.47;4.70;;;;;;;-143.84;61.83;45150.00;4952344;28;20549;-60
2023/04/23 00:53:01;;;;;;;10.73;4.90;;;;;;;-143.84;62.01;45148.09;4966654;28;20521;-60
2023/04/23 00:55:29;;;;;;;13.00;5.03;;;;;;;-143.84;62.17;45163.31;4971505;28;20516;-60
2023/04/23 00:57:56;;;;;;;11.90;4.60;;;;;;;-143.84;62.59;45140.47;4971549;28;20977;-59
2023/04/23 01:00:23;;;;;;;17.63;4.77;;;;;;;-143.84;62.69;45129.03;4971521;28;20502;-60
2023/04/23 01:02:51;;;;;;;19.87;4.50;;;;;;;-143.84;62.28;45136.66;4969584;28;20968;-59
2023/04/23 01:05:20;;;;;;;13.00;4.80;;;;;;;-143.84;62.43;45140.47;4970684;28;20597;-60
2023/04/23 01:07:47;;;;;;;16.30;4.97;;;;;;;-143.84;62.43;45159.50;4971441;28;20465;-60
2023/04/23 01:10:17;;;;;;;16.10;4.80;;;;;;;-143.84;63.06;45159.50;4969150;28;20501;-60
2023/04/23 01:12:44;;;;;;;23.63;5.60;;;;;;;-143.84;63.28;45136.66;4951854;28;20525;-60
2023/04/23 01:15:11;;;;;;;10.63;4.67;;;;;;;-143.84;63.49;45125.22;4951963;28;20501;-60
2023/04/23 01:17:38;;;;;;;14.47;4.77;;;;;;;-143.84;63.96;45165.22;4951648;28;21023;-59
2023/04/23 01:20:08;;;;;;;14.17;5.00;;;;;;;-143.84;64.28;45142.38;4951818;28;20446;-59
2023/04/23 01:22:37;;;;;;;19.17;5.37;;;;;;;-143.84;64.91;45176.66;4956724;28;20469;-60
2023/04/23 01:25:06;;;;;;;9.80;5.40;;;;;;;-143.84;65.08;45172.84;4951723;29;20461;-60
2023/04/23 01:27:34;;;;;;;11.70;5.10;;;;;;;-143.84;65.67;45146.19;4951897;28;20992;-60
2023/04/23 01:30:03;;;;;;;9.90;5.53;;;;;;;-143.84;65.91;45170.94;4951836;29;20879;-60
2023/04/23 01:32:31;;;;;;;16.30;5.47;;;;;;;-143.84;66.44;45174.75;4953533;28;20454;-60
2023/04/23 01:34:59;;;;;;;9.20;4.60;;;;;;;-143.84;66.81;45146.19;4951706;28;20442;-60
2023/04/23 01:37:27;;;;;;;18.17;5.95;;;;;;;-143.84;66.93;45148.09;4951436;28;20251;-60
2023/04/23 01:39:56;;;;;;;14.80;4.87;;;;;;;-143.84;66.87;45169.03;4964317;28;20301;-60
2023/04/23 01:42:23;;;;;;;15.30;5.00;;;;;;;-143.84;66.90;45125.22;4958432;28;20466;-60
2023/04/23 01:44:51;;;;;;;13.98;4.90;;;;;;;-143.84;66.87;45176.66;4951505;28;20198;-60
2023/04/23 01:47:19;;;;;;;12.93;5.03;;;;;;;-143.84;66.88;45144.28;4951330;28;20195;-60
2023/04/23 01:49:46;;;;;;;12.47;5.50;;;;;;;-143.84;67.07;45140.47;4951583;28;20801;-60
2023/04/23 01:52:13;;;;;;;13.10;5.87;;;;;;;-143.84;67.16;45127.13;4963289;28;20460;-60
2023/04/23 01:54:40;;;;;;;8.87;5.40;;;;;;;-143.84;67.29;45132.84;4970511;28;20449;-60
2023/04/23 01:57:09;;;;;;;12.90;5.60;;;;;;;-143.84;67.17;45180.47;4970775;28;20545;-60
2023/04/23 01:59:37;;;;;;;9.60;5.57;;;;;;;-143.84;67.48;45134.75;4961627;28;20483;-60
2023/04/23 02:02:09;;;;;;;17.07;5.40;;;;;;;-143.84;67.52;45130.94;4950777;28;20534;-60
2023/04/23 02:04:38;;;;;;;17.40;5.93;;;;;;;-143.84;67.28;45148.09;4950966;29;20446;-60
2023/04/23 02:07:06;;;;;;;8.73;4.70;;;;;;;-143.84;67.68;45146.19;4951605;28;20528;-60
2023/04/23 02:09:33;;;;;;;12.70;4.97;;;;;;;-143.84;67.65;45163.31;4957150;28;20293;-60
2023/04/23 02:12:00;;;;;;;21.85;5.25;;;;;;;-143.84;67.64;45134.75;4970521;28;20445;-60
2023/04/23 02:14:29;;;;;;;17.37;5.03;;;;;;;-143.84;67.28;45153.81;4970349;28;20299;-60
2023/04/23 02:16:56;;;;;;;11.40;4.85;;;;;;;-143.84;67.35;45153.81;4970169;28;20501;-59
2023/04/23 02:19:23;;;;;;;14.47;6.73;;;;;;;-143.84;67.37;45159.50;4967890;28;20230;-59
2023/04/23 02:21:50;;;;;;;31.33;6.30;;;;;;;-143.84;66.89;45142.38;4970220;28;20468;-60
2023/04/23 02:24:17;;;;;;;12.35;6.30;;;;;;;-143.84;66.73;45180.47;4970075;28;20226;-60
2023/04/23 02:26:45;;;;;;;14.63;6.50;;;;;;;-143.84;66.58;45146.19;4970469;28;20636;-60
2023/04/23 02:29:12;;;;;;;9.80;6.13;;;;;;;-143.84;66.13;45157.59;4968022;28;20984;-60
2023/04/23 02:31:40;;;;;;;15.00;6.40;;;;;;;-143.84;66.43;45167.13;4962142;28;20459;-60
2023/04/23 02:34:07;;;;;;;12.73;5.43;;;;;;;-143.84;66.43;45136.66;4950922;28;20595;-59
2023/04/23 02:36:35;;;;;;;11.70;5.67;;;;;;;-143.84;66.50;45155.69;4950677;28;20489;-59
2023/04/23 02:39:02;;;;;;;14.63;5.27;;;;;;;-143.84;66.18;45136.66;4953570;28;20479;-60
2023/04/23 02:41:29;;;;;;;12.73;5.35;;;;;;;-143.84;66.06;45167.13;4969994;28;20449;-59
2023/04/23 02:43:56;;;;;;;9.90;5.40;;;;;;;-143.84;65.90;45148.09;4970035;28;20294;-59
2023/04/23 02:46:23;;;;;;;9.30;5.53;;;;;;;-143.84;65.99;45140.47;4969902;28;20477;-60
2023/04/23 02:48:52;;;;;;;13.87;5.80;;;;;;;-143.84;65.99;45130.94;4967854;28;20494;-60
2023/04/23 02:51:19;;;;;;;9.27;5.43;;;;;;;-143.84;66.19;45130.94;4951468;28;20509;-60
2023/04/23 02:53:46;;;;;;;7.43;4.88;;;;;;;-143.84;66.04;45155.69;4950499;28;20194;-59
2023/04/23 02:56:13;;;;;;;10.97;5.40;;;;;;;-143.84;65.56;45155.69;4950678;28;20231;-59
2023/04/23 02:58:40;;;;;;;11.85;5.55;;;;;;;-143.84;65.42;45167.13;4950590;28;20446;-59
2023/04/23 03:01:08;;;;;;;7.60;4.70;;;;;;;-143.84;65.32;45150.00;4955733;28;20694;-60
2023/04/23 03:03:35;;;;;;;27.00;5.50;;;;;;;-143.84;65.13;45140.47;4950987;28;20447;-60
2023/04/23 03:06:05;;;;;;;9.77;4.70;;;;;;;-143.84;65.13;45144.28;4950561;28;20528;-60
2023/04/23 03:08:32;;;;;;;16.67;5.20;;;;;;;-143.84;65.28;45138.56;4949628;28;20536;-59
2023/04/23 03:10:59;;;;;;;18.75;4.90;;;;;;;-143.84;65.55;45157.59;4949181;28;20446;-60
2023/04/23 03:13:27;;;;;;;15.30;4.73;;;;;;;-143.84;65.01;45127.13;4950365;28;20203;-59
2023/04/23 03:15:55;;;;;;;12.07;5.50;;;;;;;-143.84;64.74;45155.69;4949444;28;20547;-59
2023/04/23 03:18:22;;;;;;;15.13;4.80;;;;;;;-143.84;64.54;45129.03;4949605;28;20515;-59
2023/04/23 03:20:49;;;;;;;11.83;4.50;;;;;;;-143.84;65.01;45119.53;4950101;28;20960;-59
2023/04/23 03:23:18;;;;;;;11.43;5.53;;;;;;;-143.84;64.95;45140.47;4966969;28;20473;-60
2023/04/23 03:25:45;;;;;;;6.43;4.53;;;;;;;-143.84;64.79;45136.66;4969944;28;20438;-59
2023/04/23 03:28:12;;;;;;;11.40;4.70;;;;;;;-143.84;64.56;45146.19;4969669;28;20449;-59
2023/04/23 03:30:39;;;;;;;15.63;6.17;;;;;;;-143.84;64.71;45132.84;4972991;28;20450;-60
2023/04/23 03:33:06;;;;;;;15.97;5.57;;;;;;;-143.84;64.31;45155.69;4957668;28;20461;-60
2023/04/23 03:35:33;;;;;;;14.03;5.03;;;;;;;-143.84;64.45;45155.69;4953789;28;20466;-59
2023/04/23 03:38:00;;;;;;;15.43;5.60;;;;;;;-143.84;64.27;45150.00;4953885;28;20486;-60
2023/04/23 03:40:29;;;;;;;7.57;5.17;;;;;;;-143.84;64.22;45117.63;4953573;28;20446;-60
2023/04/23 03:42:57;;;;;;;7.73;4.87;;;;;;;-143.84;64.01;45140.47;4967366;28;20982;-59
2023/04/23 03:45:25;;;;;;;9.57;5.20;;;;;;;-143.84;64.19;45136.66;4972716;28;21233;-59
2023/04/23 03:47:52;;;;;;;13.27;4.97;;;;;;;-143.84;64.05;45125.22;4972949;28;20265;-60
2023/04/23 03:50:20;;;;;;;26.43;7.53;;;;;;;-143.84;63.78;45129.03;4972973;28;20449;-60
2023/04/23 03:52:47;;;;;;;9.80;5.37;;;;;;;-143.84;63.37;45113.81;4971994;28;20548;-60
2023/04/23 03:55:14;;;;;;;16.07;6.00;;;;;;;-143.84;62.49;45110.00;4973085;28;20539;-59
2023/04/23 03:57:42;;;;;;;10.30;4.33;;;;;;;-143.84;61.01;45151.91;4972726;28;21395;-59
2023/04/23 04:00:10;;;;;;;9.80;4.93;;;;;;;-143.84;58.88;45106.19;4970808;28;20897;-60
2023/04/23 04:02:38;;;;;;;19.10;6.37;;;;;;;-143.84;56.90;45134.75;4972747;28;20446;-60
2023/04/23 04:05:06;;;;;;;18.53;5.70;;;;;;;-143.84;55.67;45113.81;4972753;28;20969;-60
2023/04/23 04:07:34;;;;;;;15.30;5.80;;;;;;;-143.84;53.62;45144.28;4972578;28;20860;-60
2023/04/23 04:10:02;;;;;;;7.50;4.80;;;;;;;-143.84;51.96;45094.78;4969596;28;20468;-60
2023/04/23 04:12:29;;;;;;;14.83;4.67;;;;;;;-143.84;51.69;45121.44;4952924;28;20867;-60
2023/04/23 04:14:57;;;;;;;13.82;5.47;;;;;;;-143.84;51.19;45123.34;4952846;28;20449;-60
2023/04/23 04:17:25;;;;;;;18.43;4.90;;;;;;;-143.84;50.42;45110.00;4953050;28;20867;-60
2023/04/23 04:19:52;;;;;;;15.70;4.70;;;;;;;-143.84;49.77;45117.63;4952479;28;20531;-60
2023/04/23 04:22:19;;;;;;;15.70;4.30;;;;;;;-143.84;49.31;45108.09;4952605;28;20517;-60
2023/04/23 04:24:47;;;;;;;7.33;4.27;;;;;;;-143.84;49.17;45127.13;4952838;28;20453;-60
2023/04/23 04:27:15;;;;;;;7.23;4.87;;;;;;;-143.84;49.05;45125.22;4952283;28;20473;-60
2023/04/23 04:29:42;;;;;;;16.52;5.32;;;;;;;-143.84;49.62;45119.53;4952864;28;20944;-60
2023/04/23 04:32:12;;;;;;;8.68;4.35;;;;;;;-143.84;48.85;45111.91;4952767;28;20232;-60
2023/04/23 04:34:39;;;;;;;12.30;4.70;;;;;;;-143.84;48.14;45115.72;4952749;29;20670;-60
2023/04/23 04:37:06;;;;;;;9.17;4.17;;;;;;;-143.84;47.12;45090.97;4956504;28;20504;-60
2023/04/23 04:39:33;;;;;;;6.73;4.60;;;;;;;-143.84;46.69;45110.00;4961619;28;20519;-60
2023/04/23 04:42:01;;;;;;;7.53;4.80;;;;;;;-143.84;46.06;45121.44;4953735;28;20459;-59
2023/04/23 04:44:29;;;;;;;11.40;4.83;;;;;;;-143.84;45.29;45077.63;4956146;28;20459;-59
2023/04/23 04:46:56;;;;;;;14.73;5.07;;;;;;;-143.84;44.73;45106.19;4957485;28;20465;-59
2023/04/23 04:49:25;;;;;;;6.63;3.80;;;;;;;-143.84;43.80;45089.06;4970897;28;20455;-59
2023/04/23 04:51:53;;;;;;;17.83;4.50;;;;;;;-143.84;43.22;45079.53;4970876;28;20818;-60
2023/04/23 04:54:20;;;;;;;13.20;5.60;;;;;;;-143.84;42.63;45087.16;4965559;28;20450;-59
2023/04/23 04:56:48;;;;;;;9.95;4.13;;;;;;;-143.84;42.20;45075.72;4960159;28;20515;-59
2023/04/23 04:59:15;;;;;;;7.27;3.47;;;;;;;-143.84;41.65;45106.19;4952332;28;20199;-59
2023/04/23 05:01:42;;;;;;;9.83;4.13;;;;;;;-143.84;41.28;45035.75;4970088;28;20875;-58
2023/04/23 05:04:10;;;;;;;20.73;4.70;;;;;;;-143.84;40.99;45068.13;4971600;28;20442;-58
2023/04/23 05:06:38;;;;;;;21.05;4.25;;;;;;;-143.84;40.62;45089.06;4971362;28;20461;-59
2023/04/23 05:09:06;;;;;;;11.43;4.93;;;;;;;-143.84;40.51;45085.25;4971318;28;20202;-59
2023/04/23 05:11:34;;;;;;;11.83;4.13;;;;;;;-143.84;40.06;45077.63;4965162;28;21249;-59
2023/04/23 05:14:03;;;;;;;9.10;4.00;;;;;;;-143.84;39.73;45068.13;4962316;28;20459;-59
2023/04/23 05:16:30;;;;;;;8.27;4.47;;;;;;;-143.84;39.47;45050.97;4968841;28;20473;-59
2023/04/23 05:18:57;;;;;;;9.83;4.20;;;;;;;-143.84;39.06;45081.44;4969166;28;20492;-59
2023/04/23 05:21:26;;;;;;;16.73;4.70;;;;;;;-143.84;38.98;45039.53;4957985;28;20459;-59
2023/04/23 05:23:55;;;;;;;9.67;4.73;;;;;;;-143.84;38.89;45066.22;4973861;28;20451;-59
2023/04/23 05:26:22;;;;;;;5.17;4.50;;;;;;;-143.84;38.22;45075.72;4976456;28;20860;-59
2023/04/23 05:28:49;;;;;;;16.40;4.80;;;;;;;-143.84;37.98;45047.16;4978591;28;20513;-60
2023/04/23 05:31:16;;;;;;;10.63;4.50;;;;;;;-143.84;37.81;45031.94;4982338;28;20448;-60
2023/04/23 05:33:43;;;;;;;15.20;4.70;;;;;;;-143.84;37.99;45068.13;4990316;28;20946;-59
2023/04/23 05:36:11;;;;;;;11.77;5.10;;;;;;;-143.84;38.02;45049.06;4986235;28;20474;-58
2023/04/23 05:38:39;;;;;;;18.53;4.63;;;;;;;-143.84;37.16;45049.06;4954665;28;20517;-61
2023/04/23 05:41:07;;;;;;;13.27;4.43;;;;;;;-143.84;37.25;45047.16;4951250;28;20806;-60
2023/04/23 05:43:34;;;;;;;13.70;4.70;;;;;;;-143.84;37.03;45052.88;4984299;28;20538;-60
2023/04/23 05:46:03;;;;;;;14.13;4.10;;;;;;;-143.84;36.82;45045.25;4982347;28;20458;-60
2023/04/23 05:48:30;;;;;;;8.70;4.60;;;;;;;-143.84;36.62;45049.06;4954509;28;20465;-60
2023/04/23 05:50:58;;;;;;;13.07;5.57;;;;;;;-143.84;36.53;45026.22;4969593;28;20464;-60
2023/04/23 05:53:25;;;;;;;14.33;4.67;;;;;;;-143.84;34.90;45058.59;4970417;28;20433;-60
2023/04/23 05:55:52;;;;;;;16.40;6.23;;;;;;;-143.84;36.69;45052.88;4958960;28;20548;-61
2023/04/23 05:58:21;;;;;;;10.17;6.10;;;;;;;-143.84;36.43;45041.44;4951468;28;20551;-62
2023/04/23 06:00:48;;;;;;;18.88;6.03;;;;;;;-143.84;36.76;45031.94;4955052;28;21294;-62
2023/04/23 06:03:16;;;;;;;13.43;6.00;;;;;;;-143.84;37.35;45030.03;4954099;28;20203;-63
2023/04/23 06:05:43;;;;;;;15.50;5.27;;;;;;;-143.84;36.61;45052.88;4959105;28;20947;-63
2023/04/23 06:08:10;;;;;;;10.73;4.87;;;;;;;-143.84;35.57;45022.41;4956953;28;20476;-65
2023/04/23 06:10:37;;;;;;;13.60;6.13;;;;;;;-143.84;35.75;45047.16;4970548;28;20448;-64
2023/04/23 06:13:04;;;;;;;19.43;7.90;;;;;;;-143.84;36.00;45022.41;4970258;28;20971;-64
2023/04/23 06:15:33;;;;;;;23.07;5.33;;;;;;;-143.84;35.10;45047.16;4970220;28;20808;-64
2023/04/23 06:18:00;;;;;;;9.30;5.70;;;;;;;-143.84;35.01;45016.69;4970016;28;20520;-64
2023/04/23 06:20:27;;;;;;;16.40;6.27;;;;;;;-143.84;35.62;45049.06;4970481;28;20549;-64
2023/04/23 06:22:54;;;;;;;11.10;5.50;;;;;;;-143.84;35.10;45028.13;4970261;28;20462;-64
2023/04/23 06:25:21;;;;;;;17.50;5.23;;;;;;;-143.84;34.90;45047.16;4970035;28;20441;-64
2023/04/23 06:27:49;;;;;;;15.87;5.70;;;;;;;-143.84;35.09;45033.84;4970252;28;20520;-64
2023/04/23 06:30:16;;;;;;;14.90;6.00;;;;;;;-143.84;34.87;45031.94;4970008;28;20487;-63
2023/04/23 06:32:44;;;;;;;16.37;5.57;;;;;;;-143.84;36.66;45068.13;4970271;28;20476;-63
2023/04/23 06:35:12;;;;;;;10.97;5.70;;;;;;;-143.84;34.82;45030.03;4970652;28;20438;-63
2023/04/23 06:37:39;;;;;;;15.00;5.20;;;;;;;-143.84;35.32;45056.69;4970058;28;20490;-64
2023/04/23 06:40:07;;;;;;;7.50;5.10;;;;;;;-143.84;35.41;45018.59;4970062;28;20449;-64
2023/04/23 06:42:34;;;;;;;12.90;5.23;;;;;;;-143.84;35.48;45058.59;4970079;28;20441;-64
2023/04/23 06:45:03;;;;;;;9.53;4.90;;;;;;;-143.84;35.34;45066.22;4970001;28;20445;-64
2023/04/23 06:47:30;;;;;;;10.20;5.70;;;;;;;-143.84;35.50;45045.25;4970175;28;20964;-63
2023/04/23 06:49:59;;;;;;;9.10;4.73;;;;;;;-143.84;36.44;45037.66;4969872;28;20461;-64
2023/04/23 06:52:27;;;;;;;17.30;5.90;;;;;;;-143.84;36.61;45031.94;4969669;28;20990;-64
2023/04/23 06:54:54;;;;;;;25.37;6.63;;;;;;;-143.84;37.41;45049.06;4956742;28;20457;-64
2023/04/23 06:57:21;;;;;;;10.33;5.70;;;;;;;-143.84;37.29;45033.84;4951841;28;20489;-64
2023/04/23 06:59:49;;;;;;;9.30;5.72;;;;;;;-143.84;36.76;45043.34;4989155;28;20444;-64
2023/04/23 07:02:16;;;;;;;16.93;5.80;;;;;;;-143.84;35.62;45014.78;4975938;28;20202;-64
2023/04/23 07:04:43;;;;;;;12.27;6.10;;;;;;;-143.84;35.45;45018.59;4971822;28;20456;-64
2023/04/23 07:07:11;;;;;;;18.60;6.20;;;;;;;-143.84;35.23;45050.97;4973558;28;20456;-63
2023/04/23 07:09:38;;;;;;;14.10;6.73;;;;;;;-143.84;35.69;45045.25;4973675;28;20874;-64
2023/04/23 07:12:06;;;;;;;7.50;5.57;;;;;;;-143.84;35.39;45030.03;4974012;28;21030;-64
2023/04/23 07:14:33;;;;;;;21.60;6.37;;;;;;;-143.84;35.59;45045.25;4991647;28;20462;-63
2023/04/23 07:17:00;;;;;;;11.13;5.97;;;;;;;-143.84;35.91;45041.44;4985514;28;20899;-63
2023/04/23 07:19:27;;;;;;;16.35;6.45;;;;;;;-143.84;35.11;45030.03;4972989;28;20457;-63
2023/04/23 07:21:54;;;;;;;15.83;6.50;;;;;;;-143.84;35.95;45043.34;4973268;28;20271;-63
2023/04/23 07:24:25;;;;;;;8.03;4.80;;;;;;;-143.84;35.11;45064.31;4973307;28;20510;-63
2023/04/23 07:26:52;;;;;;;17.00;5.50;;;;;;;-143.84;35.51;45056.69;4973196;28;20515;-63
2023/04/23 07:29:19;;;;;;;17.90;5.57;;;;;;;-143.84;36.21;45056.69;4972117;28;20443;-61
2023/04/23 07:31:47;;;;;;;16.30;6.07;;;;;;;-143.84;35.86;45039.53;4972330;28;20443;-60
2023/04/23 07:34:14;;;;;;;13.67;5.60;;;;;;;-143.84;37.07;45050.97;4972730;28;20462;-61
2023/04/23 07:36:41;;;;;;;11.93;5.03;;;;;;;-143.84;36.25;45073.81;4972132;28;20528;-61
2023/04/23 07:39:09;;;;;;;14.00;6.07;;;;;;;-143.84;35.88;45041.44;4976251;28;20497;-61
2023/04/23 07:41:37;;;;;;;16.27;7.23;;;;;;;-143.84;36.27;45064.31;4989354;28;20961;-61
2023/04/23 07:44:04;;;;;;;26.40;7.13;;;;;;;-143.84;36.71;45070.00;4987767;28;21008;-61
2023/04/23 07:46:32;;;;;;;23.17;5.97;;;;;;;-143.84;36.44;45045.25;4974978;28;20534;-60
2023/04/23 07:48:59;;;;;;;23.30;5.40;;;;;;;-143.84;36.13;45060.50;4974876;28;20453;-61
2023/04/23 07:51:27;;;;;;;16.73;4.80;;;;;;;-143.84;36.53;45047.16;4972664;28;20444;-60
2023/04/23 07:53:55;;;;;;;9.30;4.82;;;;;;;-143.84;35.71;45056.69;4971874;28;20808;-60
2023/04/23 07:56:23;;;;;;;13.70;5.40;;;;;;;-143.84;36.53;45052.88;4975787;28;20206;-60
2023/04/23 07:58:52;;;;;;;15.07;5.97;;;;;;;-143.84;36.62;45041.44;4974241;28;20554;-61
2023/04/23 08:01:20;;;;;;;9.47;6.20;;;;;;;-143.84;36.23;45035.75;4972627;28;20457;-61
2023/04/23 08:03:47;;;;;;;7.80;4.88;;;;;;;-143.84;35.48;45039.53;4972501;28;20445;-61
2023/04/23 08:06:14;;;;;;;12.77;5.30;;;;;;;-143.84;36.57;45050.97;4972242;28;20264;-61
2023/04/23 08:08:41;;;;;;;16.07;5.57;;;;;;;-143.84;37.46;45041.44;4975183;28;20444;-61
2023/04/23 08:11:09;;;;;;;14.90;5.00;;;;;;;-143.84;36.42;45037.66;4976459;28;21450;-61
2023/04/23 08:13:36;;;;;;;10.30;5.67;;;;;;;-143.84;35.76;45070.00;4973963;28;20450;-61
2023/04/23 08:16:04;;;;;;;17.93;6.30;;;;;;;-143.84;35.93;45062.41;4978859;28;20456;-61
2023/04/23 08:18:31;;;;;;;16.30;5.07;;;;;;;-143.84;36.46;45045.25;4971132;28;20519;-61
2023/04/23 08:20:59;;;;;;;19.33;6.10;;;;;;;-143.84;35.07;45033.84;4971451;28;20753;-61
2023/04/23 08:23:26;;;;;;;12.03;7.60;;;;;;;-143.84;36.07;45028.13;4980261;28;20539;-61
2023/04/23 08:25:53;;;;;;;15.30;5.67;;;;;;;-143.84;34.65;45049.06;4991635;28;20452;-61
2023/04/23 08:28:20;;;;;;;18.90;6.90;;;;;;;-143.84;35.63;45060.50;4991678;28;20889;-60
2023/04/23 08:30:47;;;;;;;14.33;5.23;;;;;;;-143.84;35.04;45050.97;4991670;28;20498;-60
2023/04/23 08:33:16;;;;;;;12.80;4.67;;;;;;;-143.84;35.65;45012.88;4986490;28;20459;-61
2023/04/23 08:35:43;;;;;;;11.20;4.70;;;;;;;-143.84;34.76;45033.84;4971811;28;21053;-61
2023/04/23 08:38:10;;;;;;;15.77;7.77;;;;;;;-143.84;34.68;45056.69;4972079;28;20573;-61
2023/04/23 08:40:38;;;;;;;29.57;8.60;;;;;;;-143.84;35.99;45033.84;4971830;28;20443;-61
2023/04/23 08:43:13;;;;;;;17.70;6.22;;;;;;;-143.84;35.28;45031.94;4971770;28;20972;-61
2023/04/23 08:45:41;;;;;;;16.17;4.63;;;;;;;-143.84;35.96;45049.06;4971791;28;20201;-61
2023/04/23 08:48:10;;;;;;;13.90;4.80;;;;;;;-143.84;35.14;45056.69;4971983;28;20524;-61
2023/04/23 08:50:43;;;;;;;16.40;6.43;;;;;;;-143.84;35.08;45052.88;4971595;28;20935;-61
2023/04/23 08:53:10;;;;;;;7.90;4.73;;;;;;;-143.84;36.31;45024.31;4971671;28;20518;-61
2023/04/23 08:55:37;;;;;;;11.93;6.13;;;;;;;-143.84;36.42;45039.53;4971595;28;20502;-61
2023/04/23 08:58:06;;;;;;;9.57;4.93;;;;;;;-143.84;35.79;45022.41;4966090;28;20489;-61
2023/04/23 09:00:34;;;;;;;23.03;5.93;;;;;;;-143.84;36.09;45035.75;4952150;28;20449;-61
2023/04/23 09:03:02;;;;;;;8.73;5.13;;;;;;;-143.84;37.21;45058.59;4952324;28;20463;-61
2023/04/23 09:05:29;;;;;;;16.57;6.63;;;;;;;-143.84;36.69;45039.53;4955285;28;20457;-61
2023/04/23 09:07:59;;;;;;;13.00;4.90;;;;;;;-143.84;37.02;45041.44;4971353;28;20500;-61
2023/04/23 09:10:26;;;;;;;12.80;5.10;;;;;;;-143.84;36.44;45020.50;4970986;28;20572;-61
2023/04/23 09:12:53;;;;;;;9.63;5.13;;;;;;;-143.84;36.62;45049.06;4971267;28;20502;-61
2023/04/23 09:15:20;;;;;;;8.97;4.10;;;;;;;-143.84;37.30;45047.16;4971226;28;20447;-61
2023/04/23 09:17:48;;;;;;;12.63;5.27;;;;;;;-143.84;38.61;45075.72;4970919;28;20451;-60
2023/04/23 09:20:16;;;;;;;13.60;4.97;;;;;;;-143.84;36.87;45035.75;4971086;28;20445;-61
2023/04/23 09:22:45;;;;;;;14.93;4.90;;;;;;;-143.84;35.50;45049.06;4971536;28;20471;-61
2023/04/23 09:25:16;;;;;;;17.67;5.47;;;;;;;-143.84;36.59;45039.53;4971286;28;20447;-61
2023/04/23 09:27:43;;;;;;;8.70;4.13;;;;;;;-143.84;36.15;45022.41;4970943;28;20490;-61
2023/04/23 09:30:12;;;;;;;13.38;4.70;;;;;;;-143.84;37.07;45075.72;4971374;28;20449;-61
2023/04/23 09:32:40;;;;;;;18.23;4.60;;;;;;;-143.84;35.93;45047.16;4971174;28;21111;-61
2023/04/23 09:35:09;;;;;;;11.50;5.33;;;;;;;-143.84;35.79;45039.53;4970849;28;20508;-61
2023/04/23 09:37:37;;;;;;;10.00;4.03;;;;;;;-143.84;36.17;45039.53;4971003;28;20496;-63
2023/04/23 09:40:07;;;;;;;11.47;4.73;;;;;;;-143.84;36.07;45050.97;4970663;28;20451;-61
2023/04/23 09:42:36;;;;;;;18.60;4.50;;;;;;;-143.84;35.82;45056.69;4971487;28;20443;-61
2023/04/23 09:45:06;;;;;;;11.53;4.90;;;;;;;-143.84;35.67;45045.25;4970793;28;20196;-61
2023/04/23 09:47:34;;;;;;;8.02;3.78;;;;;;;-143.84;36.40;45047.16;4970698;28;20477;-60
2023/04/23 09:50:01;;;;;;;10.53;4.33;;;;;;;-143.84;36.91;45068.13;4970896;28;20286;-60
2023/04/23 09:52:31;;;;;;;7.57;4.30;;;;;;;-143.84;36.36;45035.75;4970794;28;20469;-61
2023/04/23 09:54:58;;;;;;;18.67;4.60;;;;;;;-143.84;36.58;45049.06;4970643;28;20973;-60
2023/04/23 09:57:26;;;;;;;7.03;4.60;;;;;;;-143.84;36.46;45039.53;4970951;28;20497;-60
2023/04/23 09:59:56;;;;;;;16.37;5.70;;;;;;;-143.84;36.61;45039.53;4970579;28;20485;-60
2023/04/23 10:02:27;;;;;;;9.30;4.50;;;;;;;-143.84;36.57;45020.50;4970955;28;20457;-60
2023/04/23 10:04:55;;;;;;;27.03;4.73;;;;;;;-143.84;36.78;45045.25;4970634;28;20509;-60
2023/04/23 10:07:24;;;;;;;11.60;5.17;;;;;;;-143.84;37.96;45050.97;4970677;28;20461;-60
2023/04/23 10:09:51;;;;;;;11.47;4.47;;;;;;;-143.84;37.65;45043.34;4970654;28;20991;-60
2023/04/23 10:12:20;;;;;;;8.13;4.40;;;;;;;-143.84;36.33;45026.22;4970571;28;20439;-60
2023/04/23 10:14:52;;;;;;;5.63;3.90;;;;;;;-143.84;36.61;45081.44;4970466;28;20446;-60
2023/04/23 10:17:21;;;;;;;21.33;4.30;;;;;;;-143.84;35.33;45064.31;4970247;28;20549;-60
2023/04/23 10:19:50;;;;;;;10.97;5.10;;;;;;;-143.84;36.02;45049.06;4970162;28;20488;-60
2023/04/23 10:22:21;;;;;;;8.60;4.70;;;;;;;-143.84;37.26;45039.53;4970565;28;20506;-60
2023/04/23 10:24:57;;;;;;;12.63;4.20;;;;;;;-143.84;35.48;45049.06;4970424;28;20447;-60
2023/04/23 10:27:27;;;;;;;18.23;4.87;;;;;;;-143.84;35.36;45056.69;4970346;28;20487;-60
2023/04/23 10:29:55;;;;;;;12.37;5.30;;;;;;;-143.84;37.21;45060.50;4970537;28;20853;-60
2023/04/23 10:32:24;;;;;;;8.70;4.67;;;;;;;-143.84;37.50;45031.94;4970443;28;20456;-60
2023/04/23 10:34:52;;;;;;;7.67;4.60;;;;;;;-143.84;36.62;45033.84;4970267;28;20453;-60
2023/04/23 10:37:20;;;;;;;17.93;5.17;;;;;;;-143.84;36.99;45052.88;4970263;28;20455;-60
2023/04/23 10:39:51;;;;;;;14.43;4.57;;;;;;;-143.84;37.01;45052.88;4972275;28;20485;-60
2023/04/23 10:42:18;;;;;;;15.23;5.37;;;;;;;-143.84;36.47;45050.97;4974397;28;20449;-60
2023/04/23 10:44:45;;;;;;;10.83;4.90;;;;;;;-143.84;36.09;45041.44;4974357;28;20473;-60
2023/04/23 10:47:14;;;;;;;13.47;4.80;;;;;;;-143.84;35.91;45050.97;4974488;28;21013;-60
2023/04/23 10:49:43;;;;;;;10.63;4.53;;;;;;;-143.84;36.98;45030.03;4974197;28;20456;-60
2023/04/23 10:52:14;;;;;;;9.00;4.90;;;;;;;-143.84;36.45;45070.00;4974240;28;20494;-60
2023/04/23 10:54:43;;;;;;;18.40;4.60;;;;;;;-143.84;36.97;45054.78;4973948;28;20473;-60
2023/04/23 10:57:11;;;;;;;12.87;4.93;;;;;;;-143.84;36.53;45060.50;4974280;28;20437;-60
2023/04/23 10:59:40;;;;;;;13.67;5.37;;;;;;;-143.84;36.65;45106.19;4974003;28;20491;-60
2023/04/23 11:02:09;;;;;;;16.33;5.27;;;;;;;-143.84;36.55;45064.31;4974052;28;20457;-60
2023/04/23 11:04:42;;;;;;;9.00;4.20;;;;;;;-143.84;36.52;45052.88;4973670;28;20876;-60
2023/04/23 11:07:11;;;;;;;8.30;4.93;;;;;;;-143.84;37.34;45068.13;4973935;28;20441;-60
2023/04/23 11:09:41;;;;;;;8.70;4.40;;;;;;;-143.84;39.15;45054.78;4973775;28;20452;-60
2023/04/23 11:12:10;;;;;;;15.50;4.28;;;;;;;-143.84;36.62;45043.34;4973755;28;20485;-60
2023/04/23 11:14:48;;;;;;;11.13;4.17;;;;;;;-143.84;37.57;45045.25;4973943;28;20685;-60